createdAt,value
2018-12-30T00:00:08.693Z,16.11
2018-12-30T00:01:11.465Z,16.10
2018-12-30T00:02:13.800Z,16.11
2018-12-30T00:03:16.465Z,16.10
2018-12-30T00:04:19.644Z,16.09
2018-12-30T00:05:22.731Z,16.09
2018-12-30T00:06:27.031Z,16.10
2018-12-30T00:07:29.909Z,16.11
2018-12-30T00:08:32.469Z,16.11
2018-12-30T00:09:34.738Z,16.11
2018-12-30T00:10:37.094Z,16.11
2018-12-30T00:11:40.995Z,16.10
2018-12-30T00:12:45.254Z,16.10
2018-12-30T00:13:49.636Z,16.10
2018-12-30T00:14:52.488Z,16.09
2018-12-30T00:15:55.874Z,16.10
2018-12-30T00:16:58.242Z,16.10
2018-12-30T00:18:00.801Z,16.09
2018-12-30T00:19:03.773Z,16.10
2018-12-30T00:20:05.876Z,16.10
2018-12-30T00:21:09.179Z,16.11
2018-12-30T00:22:12.146Z,16.11
2018-12-30T00:23:14.450Z,16.10
2018-12-30T00:24:17.141Z,16.11
2018-12-30T00:25:20.096Z,16.11
2018-12-30T00:26:23.122Z,16.10
2018-12-30T00:27:25.435Z,16.11
2018-12-30T00:28:28.839Z,16.11
2018-12-30T00:29:31.592Z,16.12
2018-12-30T00:30:33.953Z,16.12
2018-12-30T00:31:36.817Z,16.12
2018-12-30T00:32:39.094Z,16.12
2018-12-30T00:33:41.759Z,16.11
2018-12-30T00:34:44.916Z,16.13
2018-12-30T00:35:47.199Z,16.12
2018-12-30T00:36:49.767Z,16.11
2018-12-30T00:37:52.637Z,16.12
2018-12-30T00:38:56.229Z,16.12
2018-12-30T00:39:59.412Z,16.13
2018-12-30T00:41:03.113Z,16.12
2018-12-30T00:42:05.675Z,16.11
2018-12-30T00:43:08.341Z,16.12
2018-12-30T00:44:11.044Z,16.13
2018-12-30T00:45:13.851Z,16.12
2018-12-30T00:46:16.757Z,16.11
2018-12-30T00:47:19.123Z,16.11
2018-12-30T00:48:22.095Z,16.11
2018-12-30T00:49:24.111Z,16.11
2018-12-30T00:50:26.135Z,16.13
2018-12-30T00:51:28.872Z,16.12
2018-12-30T00:52:30.880Z,16.12
2018-12-30T00:53:35.815Z,16.12
2018-12-30T00:54:38.317Z,16.12
2018-12-30T00:55:40.368Z,16.11
2018-12-30T00:56:42.383Z,16.11
2018-12-30T00:57:44.427Z,16.11
2018-12-30T00:58:46.438Z,16.11
2018-12-30T00:59:49.252Z,16.12
2018-12-30T01:00:51.271Z,16.09
2018-12-30T01:01:53.298Z,16.10
2018-12-30T01:02:55.331Z,16.10
2018-12-30T01:03:57.660Z,16.10
2018-12-30T01:04:59.723Z,16.11
2018-12-30T01:06:01.737Z,16.11
2018-12-30T01:07:03.948Z,16.10
2018-12-30T01:08:05.964Z,16.11
2018-12-30T01:09:07.982Z,16.11
2018-12-30T01:10:10.325Z,16.10
2018-12-30T01:11:12.362Z,16.10
2018-12-30T01:12:14.376Z,16.10
2018-12-30T01:13:16.417Z,16.09
2018-12-30T01:14:18.434Z,16.09
2018-12-30T01:15:20.864Z,16.09
2018-12-30T01:16:22.894Z,16.10
2018-12-30T01:17:24.912Z,16.09
2018-12-30T01:18:26.946Z,16.09
2018-12-30T01:19:31.520Z,16.10
2018-12-30T01:20:33.556Z,16.09
2018-12-30T01:21:35.609Z,16.09
2018-12-30T01:22:37.628Z,16.09
2018-12-30T01:23:39.659Z,16.10
2018-12-30T01:24:41.729Z,16.08
2018-12-30T01:25:43.794Z,16.08
2018-12-30T01:26:46.120Z,16.09
2018-12-30T01:27:48.129Z,16.08
2018-12-30T01:28:50.152Z,16.08
2018-12-30T01:29:52.163Z,16.09
2018-12-30T01:30:54.213Z,16.08
2018-12-30T01:31:56.244Z,16.08
2018-12-30T01:32:58.274Z,16.08
2018-12-30T01:34:00.286Z,16.08
2018-12-30T01:35:03.607Z,16.09
2018-12-30T01:36:05.662Z,16.09
2018-12-30T01:37:07.679Z,16.09
2018-12-30T01:38:09.693Z,16.09
2018-12-30T01:39:12.013Z,16.09
2018-12-30T01:40:14.038Z,16.08
2018-12-30T01:41:16.092Z,16.09
2018-12-30T01:42:18.114Z,16.08
2018-12-30T01:43:20.124Z,16.09
2018-12-30T01:44:22.143Z,16.09
2018-12-30T01:45:24.391Z,16.09
2018-12-30T01:46:26.462Z,16.08
2018-12-30T01:47:28.504Z,16.09
2018-12-30T01:48:30.520Z,16.08
2018-12-30T01:49:32.539Z,16.08
2018-12-30T01:50:34.776Z,16.08
2018-12-30T01:51:36.849Z,16.08
2018-12-30T01:52:38.881Z,16.07
2018-12-30T01:53:40.893Z,16.08
2018-12-30T01:54:42.901Z,16.09
2018-12-30T01:55:44.923Z,16.08
2018-12-30T01:56:46.969Z,16.09
2018-12-30T01:57:48.984Z,16.08
2018-12-30T01:58:51.001Z,16.09
2018-12-30T01:59:54.722Z,16.08
2018-12-30T02:00:56.757Z,16.08
2018-12-30T02:01:58.811Z,16.08
2018-12-30T02:03:00.918Z,16.08
2018-12-30T02:04:02.939Z,16.09
2018-12-30T02:05:04.959Z,16.09
2018-12-30T02:06:06.987Z,16.09
2018-12-30T02:07:09.049Z,16.09
2018-12-30T02:08:11.070Z,16.09
2018-12-30T02:09:13.104Z,16.09
2018-12-30T02:10:15.118Z,16.09
2018-12-30T02:11:17.140Z,16.08
2018-12-30T02:12:19.286Z,16.08
2018-12-30T02:13:21.315Z,16.08
2018-12-30T02:14:23.347Z,16.09
2018-12-30T02:15:25.776Z,16.09
2018-12-30T02:16:29.965Z,16.08
2018-12-30T02:17:32.011Z,16.09
2018-12-30T02:18:33.963Z,16.08
2018-12-30T02:19:35.981Z,16.09
2018-12-30T02:20:38.000Z,16.10
2018-12-30T02:21:41.240Z,16.08
2018-12-30T02:22:43.503Z,16.09
2018-12-30T02:23:45.524Z,16.08
2018-12-30T02:24:47.555Z,16.08
2018-12-30T02:25:49.516Z,16.08
2018-12-30T02:26:51.542Z,16.09
2018-12-30T02:27:53.876Z,16.08
2018-12-30T02:28:56.104Z,16.06
2018-12-30T02:29:58.156Z,16.07
2018-12-30T02:31:00.171Z,16.07
2018-12-30T02:32:02.227Z,16.07
2018-12-30T02:33:04.283Z,16.08
2018-12-30T02:34:06.303Z,16.08
2018-12-30T02:35:08.342Z,16.09
2018-12-30T02:36:10.391Z,16.09
2018-12-30T02:37:12.416Z,16.08
2018-12-30T02:38:14.489Z,16.08
2018-12-30T02:39:16.544Z,16.09
2018-12-30T02:40:18.553Z,16.09
2018-12-30T02:41:21.004Z,16.08
2018-12-30T02:42:23.046Z,16.09
2018-12-30T02:43:25.101Z,16.09
2018-12-30T02:44:27.150Z,16.09
2018-12-30T02:45:29.182Z,16.09
2018-12-30T02:46:31.217Z,16.09
2018-12-30T02:47:33.243Z,16.08
2018-12-30T02:48:35.288Z,16.08
2018-12-30T02:49:37.321Z,16.09
2018-12-30T02:50:39.354Z,16.09
2018-12-30T02:51:50.085Z,16.10
2018-12-30T02:52:45.063Z,16.10
2018-12-30T02:53:47.415Z,16.09
2018-12-30T02:54:49.456Z,16.09
2018-12-30T02:55:51.404Z,16.10
2018-12-30T02:56:53.423Z,16.09
2018-12-30T02:57:55.568Z,16.09
2018-12-30T02:58:58.843Z,16.09
2018-12-30T03:00:00.879Z,16.09
2018-12-30T03:01:02.927Z,16.09
2018-12-30T03:02:05.149Z,16.08
2018-12-30T03:03:07.389Z,16.08
2018-12-30T03:04:09.363Z,16.09
2018-12-30T03:05:12.010Z,16.08
2018-12-30T03:06:15.936Z,16.09
2018-12-30T03:07:17.752Z,16.08
2018-12-30T03:08:19.792Z,16.08
2018-12-30T03:09:21.871Z,16.08
2018-12-30T03:10:23.896Z,16.08
2018-12-30T03:11:25.838Z,16.08
2018-12-30T03:12:27.880Z,16.07
2018-12-30T03:13:29.832Z,16.07
2018-12-30T03:14:31.825Z,16.07
2018-12-30T03:15:33.860Z,16.06
2018-12-30T03:16:35.818Z,16.05
2018-12-30T03:17:37.842Z,16.06
2018-12-30T03:18:39.874Z,16.07
2018-12-30T03:19:41.950Z,16.06
2018-12-30T03:20:44.260Z,16.05
2018-12-30T03:21:46.286Z,16.06
2018-12-30T03:22:48.346Z,16.05
2018-12-30T03:23:50.375Z,16.04
2018-12-30T03:24:52.428Z,16.04
2018-12-30T03:25:54.378Z,16.05
2018-12-30T03:26:56.399Z,16.05
2018-12-30T03:27:58.343Z,16.04
2018-12-30T03:29:00.318Z,16.05
2018-12-30T03:30:02.378Z,16.05
2018-12-30T03:31:04.342Z,16.05
2018-12-30T03:32:09.446Z,16.05
2018-12-30T03:33:11.478Z,16.05
2018-12-30T03:34:13.503Z,16.04
2018-12-30T03:35:15.727Z,16.05
2018-12-30T03:36:17.677Z,16.04
2018-12-30T03:37:19.629Z,16.03
2018-12-30T03:38:21.592Z,16.05
2018-12-30T03:39:23.533Z,16.04
2018-12-30T03:40:25.543Z,16.04
2018-12-30T03:41:27.580Z,16.03
2018-12-30T03:42:29.565Z,16.03
2018-12-30T03:43:31.536Z,16.04
2018-12-30T03:44:33.504Z,16.04
2018-12-30T03:45:35.554Z,16.03
2018-12-30T03:46:37.583Z,16.03
2018-12-30T03:47:39.611Z,16.04
2018-12-30T03:48:41.560Z,16.03
2018-12-30T03:49:43.595Z,16.02
2018-12-30T03:50:45.583Z,16.03
2018-12-30T03:51:47.609Z,16.03
2018-12-30T03:52:49.650Z,16.03
2018-12-30T03:53:51.607Z,16.02
2018-12-30T03:54:53.644Z,16.03
2018-12-30T03:55:55.617Z,16.03
2018-12-30T03:56:57.631Z,16.04
2018-12-30T03:58:01.983Z,16.04
2018-12-30T03:59:03.929Z,16.03
2018-12-30T04:00:05.952Z,16.05
2018-12-30T04:01:07.922Z,16.04
2018-12-30T04:02:09.858Z,16.03
2018-12-30T04:03:11.835Z,16.02
2018-12-30T04:04:13.856Z,16.03
2018-12-30T04:05:15.809Z,16.03
2018-12-30T04:06:17.781Z,16.03
2018-12-30T04:07:19.801Z,16.02
2018-12-30T04:08:21.845Z,16.03
2018-12-30T04:09:23.802Z,16.03
2018-12-30T04:10:25.801Z,16.02
2018-12-30T04:11:27.779Z,16.03
2018-12-30T04:12:29.791Z,16.03
2018-12-30T04:13:31.759Z,16.03
2018-12-30T04:14:33.716Z,16.03
2018-12-30T04:15:35.663Z,16.03
2018-12-30T04:16:37.840Z,16.03
2018-12-30T04:17:39.866Z,16.04
2018-12-30T04:18:41.884Z,16.03
2018-12-30T04:19:43.916Z,16.03
2018-12-30T04:20:45.890Z,16.03
2018-12-30T04:21:47.875Z,16.02
2018-12-30T04:22:49.900Z,16.03
2018-12-30T04:23:51.912Z,16.04
2018-12-30T04:24:53.922Z,16.04
2018-12-30T04:25:55.887Z,16.03
2018-12-30T04:26:57.857Z,16.04
2018-12-30T04:27:59.810Z,16.04
2018-12-30T04:29:01.880Z,16.04
2018-12-30T04:30:03.841Z,16.04
2018-12-30T04:31:05.784Z,16.03
2018-12-30T04:32:07.846Z,16.04
2018-12-30T04:33:09.808Z,16.04
2018-12-30T04:34:11.766Z,16.04
2018-12-30T04:35:13.730Z,16.04
2018-12-30T04:36:15.746Z,16.04
2018-12-30T04:37:17.738Z,16.04
2018-12-30T04:38:19.687Z,16.04
2018-12-30T04:39:21.625Z,16.03
2018-12-30T04:40:23.562Z,16.04
2018-12-30T04:41:25.507Z,16.03
2018-12-30T04:42:27.474Z,16.04
2018-12-30T04:43:29.426Z,16.05
2018-12-30T04:44:31.481Z,16.04
2018-12-30T04:45:33.502Z,16.04
2018-12-30T04:46:35.487Z,16.04
2018-12-30T04:47:37.488Z,16.04
2018-12-30T04:48:39.501Z,16.03
2018-12-30T04:49:41.484Z,16.04
2018-12-30T04:50:43.466Z,16.04
2018-12-30T04:51:45.488Z,16.04
2018-12-30T04:52:47.556Z,16.05
2018-12-30T04:53:50.646Z,16.05
2018-12-30T04:54:52.677Z,16.04
2018-12-30T04:55:54.720Z,16.05
2018-12-30T04:56:56.684Z,16.04
2018-12-30T04:57:58.738Z,16.03
2018-12-30T04:59:00.782Z,16.03
2018-12-30T05:00:02.825Z,16.02
2018-12-30T05:01:04.869Z,16.04
2018-12-30T05:02:06.839Z,16.04
2018-12-30T05:03:08.882Z,16.03
2018-12-30T05:04:10.834Z,16.03
2018-12-30T05:05:12.860Z,16.04
2018-12-30T05:06:14.904Z,16.04
2018-12-30T05:07:16.928Z,16.03
2018-12-30T05:08:18.988Z,16.03
2018-12-30T05:09:21.006Z,16.02
2018-12-30T05:10:23.042Z,16.03
2018-12-30T05:11:25.029Z,16.02
2018-12-30T05:12:27.170Z,16.02
2018-12-30T05:13:29.232Z,16.02
2018-12-30T05:14:31.190Z,16.02
2018-12-30T05:15:33.233Z,16.02
2018-12-30T05:16:35.193Z,16.02
2018-12-30T05:17:37.143Z,16.03
2018-12-30T05:18:39.182Z,16.01
2018-12-30T05:19:41.199Z,16.02
2018-12-30T05:20:43.287Z,16.02
2018-12-30T05:21:45.256Z,16.03
2018-12-30T05:22:47.273Z,16.02
2018-12-30T05:23:50.017Z,16.02
2018-12-30T05:24:51.983Z,16.02
2018-12-30T05:25:53.931Z,16.02
2018-12-30T05:26:55.891Z,16.02
2018-12-30T05:27:57.841Z,16.01
2018-12-30T05:28:59.863Z,16.02
2018-12-30T05:30:04.329Z,16.03
2018-12-30T05:31:06.288Z,16.02
2018-12-30T05:32:08.310Z,16.01
2018-12-30T05:33:10.336Z,16.03
2018-12-30T05:34:12.399Z,16.03
2018-12-30T05:35:14.424Z,16.02
2018-12-30T05:36:16.379Z,16.02
2018-12-30T05:37:18.420Z,16.02
2018-12-30T05:38:20.451Z,16.01
2018-12-30T05:39:22.437Z,16.02
2018-12-30T05:40:24.408Z,16.03
2018-12-30T05:41:26.443Z,16.02
2018-12-30T05:42:28.459Z,16.02
2018-12-30T05:43:30.417Z,16.02
2018-12-30T05:44:32.488Z,16.02
2018-12-30T05:45:34.431Z,16.03
2018-12-30T05:46:36.384Z,16.02
2018-12-30T05:47:38.340Z,16.03
2018-12-30T05:48:40.467Z,16.04
2018-12-30T05:49:42.473Z,16.04
2018-12-30T05:50:44.434Z,16.04
2018-12-30T05:51:46.439Z,16.04
2018-12-30T05:52:48.476Z,16.04
2018-12-30T05:53:50.493Z,16.05
2018-12-30T05:54:52.478Z,16.06
2018-12-30T05:55:54.421Z,16.07
2018-12-30T05:56:56.377Z,16.07
2018-12-30T05:57:58.324Z,16.08
2018-12-30T05:59:00.275Z,16.09
2018-12-30T06:00:02.256Z,16.09
2018-12-30T06:01:04.281Z,16.09
2018-12-30T06:02:06.287Z,16.10
2018-12-30T06:03:08.355Z,16.10
2018-12-30T06:04:10.308Z,16.10
2018-12-30T06:05:12.295Z,16.11
2018-12-30T06:06:14.332Z,16.12
2018-12-30T06:07:16.368Z,16.10
2018-12-30T06:08:18.385Z,16.13
2018-12-30T06:09:20.334Z,16.12
2018-12-30T06:10:22.377Z,16.12
2018-12-30T06:11:24.312Z,16.12
2018-12-30T06:12:26.283Z,16.12
2018-12-30T06:13:28.259Z,16.12
2018-12-30T06:14:30.307Z,16.12
2018-12-30T06:15:32.320Z,16.12
2018-12-30T06:16:34.286Z,16.12
2018-12-30T06:17:36.320Z,16.12
2018-12-30T06:18:38.311Z,16.11
2018-12-30T06:19:40.276Z,16.11
2018-12-30T06:20:42.267Z,16.11
2018-12-30T06:21:44.523Z,16.10
2018-12-30T06:22:49.727Z,16.10
2018-12-30T06:23:50.253Z,16.10
2018-12-30T06:24:52.293Z,16.11
2018-12-30T06:25:54.363Z,16.11
2018-12-30T06:26:56.398Z,16.09
2018-12-30T06:27:58.446Z,16.09
2018-12-30T06:29:00.417Z,16.09
2018-12-30T06:30:02.374Z,16.09
2018-12-30T06:31:04.467Z,16.08
2018-12-30T06:32:08.290Z,16.08
2018-12-30T06:33:10.253Z,16.09
2018-12-30T06:34:12.243Z,16.08
2018-12-30T06:35:14.190Z,16.07
2018-12-30T06:36:16.169Z,16.08
2018-12-30T06:37:18.185Z,16.07
2018-12-30T06:38:20.360Z,16.06
2018-12-30T06:39:22.341Z,16.06
2018-12-30T06:40:24.307Z,16.06
2018-12-30T06:41:26.316Z,16.05
2018-12-30T06:42:28.350Z,16.04
2018-12-30T06:43:30.366Z,16.05
2018-12-30T06:44:32.374Z,16.06
2018-12-30T06:45:34.406Z,16.04
2018-12-30T06:46:36.376Z,16.03
2018-12-30T06:47:38.342Z,16.04
2018-12-30T06:48:40.322Z,16.03
2018-12-30T06:49:42.278Z,16.02
2018-12-30T06:50:44.227Z,16.02
2018-12-30T06:51:49.245Z,16.01
2018-12-30T06:52:57.603Z,16.01
2018-12-30T06:53:54.961Z,16.02
2018-12-30T06:54:56.967Z,16.00
2018-12-30T06:55:59.219Z,16.01
2018-12-30T06:57:01.277Z,15.99
2018-12-30T06:58:03.301Z,16.00
2018-12-30T06:59:07.669Z,15.99
2018-12-30T07:00:09.690Z,15.99
2018-12-30T07:01:11.729Z,15.98
2018-12-30T07:02:13.705Z,15.99
2018-12-30T07:03:15.722Z,15.97
2018-12-30T07:04:17.683Z,15.98
2018-12-30T07:05:19.647Z,15.97
2018-12-30T07:06:21.609Z,15.96
2018-12-30T07:07:23.667Z,15.98
2018-12-30T07:08:25.710Z,15.97
2018-12-30T07:09:27.713Z,15.95
2018-12-30T07:10:29.725Z,15.96
2018-12-30T07:11:31.685Z,15.95
2018-12-30T07:12:33.746Z,15.95
2018-12-30T07:13:38.239Z,15.96
2018-12-30T07:14:40.185Z,15.94
2018-12-30T07:15:42.143Z,15.95
2018-12-30T07:16:44.109Z,15.96
2018-12-30T07:17:46.191Z,15.94
2018-12-30T07:18:48.205Z,15.94
2018-12-30T07:19:50.165Z,15.94
2018-12-30T07:20:52.205Z,15.93
2018-12-30T07:21:54.159Z,15.94
2018-12-30T07:22:56.148Z,15.93
2018-12-30T07:23:58.109Z,15.92
2018-12-30T07:25:00.090Z,15.93
2018-12-30T07:26:02.708Z,15.92
2018-12-30T07:27:04.716Z,15.91
2018-12-30T07:28:06.705Z,15.92
2018-12-30T07:29:08.662Z,15.92
2018-12-30T07:30:10.616Z,15.91
2018-12-30T07:31:12.652Z,15.91
2018-12-30T07:32:14.669Z,15.91
2018-12-30T07:33:16.649Z,15.91
2018-12-30T07:34:18.606Z,15.90
2018-12-30T07:35:20.545Z,15.90
2018-12-30T07:36:22.715Z,15.90
2018-12-30T07:37:24.763Z,15.90
2018-12-30T07:38:26.829Z,15.89
2018-12-30T07:39:28.797Z,15.89
2018-12-30T07:40:30.753Z,15.91
2018-12-30T07:41:32.752Z,15.89
2018-12-30T07:42:34.695Z,15.87
2018-12-30T07:43:36.668Z,15.88
2018-12-30T07:44:38.601Z,15.87
2018-12-30T07:45:40.561Z,15.87
2018-12-30T07:46:42.506Z,15.87
2018-12-30T07:47:44.475Z,15.88
2018-12-30T07:48:46.446Z,15.87
2018-12-30T07:49:48.400Z,15.87
2018-12-30T07:50:50.335Z,15.87
2018-12-30T07:51:52.559Z,15.86
2018-12-30T07:52:54.576Z,15.86
2018-12-30T07:53:56.550Z,15.87
2018-12-30T07:54:58.808Z,15.87
2018-12-30T07:56:00.766Z,15.87
2018-12-30T07:57:06.023Z,15.86
2018-12-30T07:58:07.987Z,15.87
2018-12-30T07:59:09.967Z,15.87
2018-12-30T08:00:11.904Z,15.87
2018-12-30T08:01:13.958Z,15.86
2018-12-30T08:02:18.346Z,15.85
2018-12-30T08:03:20.364Z,15.86
2018-12-30T08:04:22.338Z,15.86
2018-12-30T08:05:24.282Z,15.85
2018-12-30T08:06:26.253Z,15.85
2018-12-30T08:07:28.224Z,15.86
2018-12-30T08:08:30.244Z,15.86
2018-12-30T08:09:32.306Z,15.85
2018-12-30T08:10:34.374Z,15.85
2018-12-30T08:11:36.360Z,15.85
2018-12-30T08:12:38.378Z,15.86
2018-12-30T08:13:40.331Z,15.85
2018-12-30T08:14:42.462Z,15.85
2018-12-30T08:15:44.425Z,15.86
2018-12-30T08:16:46.375Z,15.85
2018-12-30T08:17:48.382Z,15.84
2018-12-30T08:18:50.335Z,15.85
2018-12-30T08:19:52.335Z,15.85
2018-12-30T08:20:57.888Z,15.85
2018-12-30T08:21:59.928Z,15.84
2018-12-30T08:23:01.970Z,15.84
2018-12-30T08:24:03.979Z,15.85
2018-12-30T08:25:05.963Z,15.84
2018-12-30T08:26:07.927Z,15.84
2018-12-30T08:27:09.895Z,15.83
2018-12-30T08:28:11.845Z,15.85
2018-12-30T08:29:13.879Z,15.84
2018-12-30T08:30:15.838Z,15.85
2018-12-30T08:31:17.828Z,15.85
2018-12-30T08:32:19.814Z,15.84
2018-12-30T08:33:22.040Z,15.84
2018-12-30T08:34:23.994Z,15.85
2018-12-30T08:35:25.973Z,15.84
2018-12-30T08:36:27.909Z,15.85
2018-12-30T08:37:29.855Z,15.85
2018-12-30T08:38:31.801Z,15.84
2018-12-30T08:39:33.949Z,15.85
2018-12-30T08:40:35.983Z,15.84
2018-12-30T08:41:38.006Z,15.84
2018-12-30T08:42:40.319Z,15.84
2018-12-30T08:43:42.265Z,15.84
2018-12-30T08:44:44.275Z,15.86
2018-12-30T08:45:46.322Z,15.87
2018-12-30T08:46:48.285Z,15.86
2018-12-30T08:47:50.299Z,15.87
2018-12-30T08:48:52.321Z,15.87
2018-12-30T08:49:54.350Z,15.88
2018-12-30T08:50:56.403Z,15.87
2018-12-30T08:51:58.353Z,15.89
2018-12-30T08:53:00.293Z,15.88
2018-12-30T08:54:02.317Z,15.89
2018-12-30T08:55:04.257Z,15.88
2018-12-30T08:56:06.248Z,15.89
2018-12-30T08:57:08.266Z,15.89
2018-12-30T08:58:10.295Z,15.88
2018-12-30T08:59:12.297Z,15.88
2018-12-30T09:00:14.278Z,15.90
2018-12-30T09:01:16.323Z,15.91
2018-12-30T09:02:18.312Z,15.91
2018-12-30T09:03:20.278Z,15.90
2018-12-30T09:04:22.221Z,15.91
2018-12-30T09:05:24.213Z,15.89
2018-12-30T09:06:26.196Z,15.89
2018-12-30T09:07:28.214Z,15.88
2018-12-30T09:08:30.235Z,15.89
2018-12-30T09:09:32.326Z,15.89
2018-12-30T09:10:34.367Z,15.89
2018-12-30T09:11:36.413Z,15.90
2018-12-30T09:12:38.364Z,15.90
2018-12-30T09:13:40.316Z,15.92
2018-12-30T09:14:42.334Z,15.92
2018-12-30T09:15:44.342Z,15.91
2018-12-30T09:16:46.320Z,15.91
2018-12-30T09:17:48.936Z,15.90
2018-12-30T09:18:50.970Z,15.91
2018-12-30T09:19:52.919Z,15.91
2018-12-30T09:20:54.884Z,15.92
2018-12-30T09:21:56.921Z,15.92
2018-12-30T09:22:58.863Z,15.91
2018-12-30T09:24:00.806Z,15.93
2018-12-30T09:25:02.742Z,15.93
2018-12-30T09:26:04.754Z,15.93
2018-12-30T09:27:06.718Z,15.91
2018-12-30T09:28:08.648Z,15.90
2018-12-30T09:29:10.594Z,15.91
2018-12-30T09:30:15.554Z,15.92
2018-12-30T09:31:17.710Z,15.92
2018-12-30T09:32:21.236Z,15.93
2018-12-30T09:33:26.353Z,15.94
2018-12-30T09:34:30.578Z,15.94
2018-12-30T09:35:32.564Z,15.96
2018-12-30T09:36:34.502Z,15.96
2018-12-30T09:37:36.502Z,15.98
2018-12-30T09:38:39.216Z,15.98
2018-12-30T09:39:41.241Z,16.00
2018-12-30T09:40:43.247Z,16.02
2018-12-30T09:41:45.290Z,16.02
2018-12-30T09:42:47.277Z,16.04
2018-12-30T09:43:49.308Z,16.05
2018-12-30T09:44:51.233Z,16.07
2018-12-30T09:45:53.194Z,16.08
2018-12-30T09:46:55.208Z,16.09
2018-12-30T09:47:57.221Z,16.09
2018-12-30T09:48:59.340Z,16.11
2018-12-30T09:50:01.388Z,16.11
2018-12-30T09:51:03.418Z,16.12
2018-12-30T09:52:05.350Z,16.13
2018-12-30T09:53:07.464Z,16.13
2018-12-30T09:54:09.484Z,16.13
2018-12-30T09:55:11.419Z,16.13
2018-12-30T09:56:13.659Z,16.14
2018-12-30T09:57:15.614Z,16.14
2018-12-30T09:58:17.584Z,16.14
2018-12-30T09:59:19.591Z,16.16
2018-12-30T10:00:21.519Z,16.15
2018-12-30T10:01:23.470Z,16.16
2018-12-30T10:02:26.079Z,16.16
2018-12-30T10:03:28.057Z,16.17
2018-12-30T10:04:30.013Z,16.16
2018-12-30T10:05:32.023Z,16.17
2018-12-30T10:06:33.987Z,16.17
2018-12-30T10:07:35.927Z,16.17
2018-12-30T10:08:37.911Z,16.18
2018-12-30T10:09:39.930Z,16.18
2018-12-30T10:10:41.861Z,16.19
2018-12-30T10:11:43.818Z,16.19
2018-12-30T10:12:45.751Z,16.19
2018-12-30T10:13:47.709Z,16.18
2018-12-30T10:14:49.718Z,16.17
2018-12-30T10:15:51.654Z,16.17
2018-12-30T10:16:55.237Z,16.18
2018-12-30T10:17:57.195Z,16.17
2018-12-30T10:19:00.231Z,16.17
2018-12-30T10:20:02.189Z,16.17
2018-12-30T10:21:06.001Z,16.17
2018-12-30T10:22:07.951Z,16.15
2018-12-30T10:23:09.900Z,16.14
2018-12-30T10:24:11.927Z,16.14
2018-12-30T10:25:13.883Z,16.13
2018-12-30T10:26:15.830Z,16.14
2018-12-30T10:27:17.774Z,16.13
2018-12-30T10:28:19.729Z,16.13
2018-12-30T10:29:21.779Z,16.14
2018-12-30T10:30:23.813Z,16.13
2018-12-30T10:31:25.812Z,16.12
2018-12-30T10:32:27.765Z,16.12
2018-12-30T10:33:29.714Z,16.10
2018-12-30T10:34:31.678Z,16.11
2018-12-30T10:35:33.630Z,16.10
2018-12-30T10:36:35.577Z,16.10
2018-12-30T10:37:37.521Z,16.08
2018-12-30T10:38:39.465Z,16.07
2018-12-30T10:39:41.441Z,16.08
2018-12-30T10:40:43.383Z,16.08
2018-12-30T10:41:45.342Z,16.07
2018-12-30T10:42:47.375Z,16.07
2018-12-30T10:43:49.315Z,16.08
2018-12-30T10:44:54.709Z,16.07
2018-12-30T10:45:56.655Z,16.05
2018-12-30T10:46:58.597Z,16.07
2018-12-30T10:48:00.545Z,16.07
2018-12-30T10:49:02.506Z,16.05
2018-12-30T10:50:04.485Z,16.06
2018-12-30T10:51:06.423Z,16.05
2018-12-30T10:52:08.373Z,16.04
2018-12-30T10:53:10.304Z,16.05
2018-12-30T10:54:12.245Z,16.05
2018-12-30T10:55:14.225Z,16.04
2018-12-30T10:56:16.181Z,16.05
2018-12-30T10:57:20.426Z,16.05
2018-12-30T10:58:22.365Z,16.05
2018-12-30T10:59:24.303Z,16.03
2018-12-30T11:00:26.283Z,16.03
2018-12-30T11:01:28.245Z,16.03
2018-12-30T11:02:30.176Z,16.03
2018-12-30T11:03:32.122Z,16.03
2018-12-30T11:04:34.135Z,16.03
2018-12-30T11:05:36.105Z,16.02
2018-12-30T11:06:38.039Z,16.00
2018-12-30T11:07:40.034Z,16.00
2018-12-30T11:08:42.026Z,16.00
2018-12-30T11:09:43.980Z,16.01
2018-12-30T11:10:46.037Z,15.99
2018-12-30T11:11:50.955Z,16.00
2018-12-30T11:12:52.976Z,16.00
2018-12-30T11:13:54.931Z,16.01
2018-12-30T11:14:56.951Z,16.00
2018-12-30T11:15:58.903Z,16.01
2018-12-30T11:17:00.846Z,16.00
2018-12-30T11:18:02.794Z,16.00
2018-12-30T11:19:04.737Z,16.00
2018-12-30T11:20:06.680Z,15.99
2018-12-30T11:21:08.647Z,15.98
2018-12-30T11:22:10.586Z,15.96
2018-12-30T11:23:12.530Z,15.96
2018-12-30T11:24:14.461Z,15.95
2018-12-30T11:25:16.401Z,15.96
2018-12-30T11:26:18.368Z,15.96
2018-12-30T11:27:20.324Z,15.98
2018-12-30T11:28:22.262Z,15.98
2018-12-30T11:29:24.216Z,15.98
2018-12-30T11:30:26.336Z,15.98
2018-12-30T11:31:28.372Z,15.97
2018-12-30T11:32:30.329Z,15.98
2018-12-30T11:33:32.351Z,15.97
2018-12-30T11:34:34.365Z,15.98
2018-12-30T11:35:36.318Z,15.98
2018-12-30T11:36:38.356Z,15.96
2018-12-30T11:37:40.657Z,15.96
2018-12-30T11:38:42.601Z,15.97
2018-12-30T11:39:44.542Z,15.97
2018-12-30T11:40:46.483Z,15.97
2018-12-30T11:41:48.463Z,15.96
2018-12-30T11:42:50.477Z,15.95
2018-12-30T11:43:52.501Z,15.96
2018-12-30T11:44:54.450Z,15.94
2018-12-30T11:45:56.397Z,15.94
2018-12-30T11:46:58.437Z,15.93
2018-12-30T11:48:00.390Z,15.93
2018-12-30T11:49:02.405Z,15.92
2018-12-30T11:50:04.415Z,15.91
2018-12-30T11:51:06.341Z,15.90
2018-12-30T11:52:08.453Z,15.90
2018-12-30T11:53:10.417Z,15.91
2018-12-30T11:54:16.399Z,15.91
2018-12-30T11:55:16.336Z,15.92
2018-12-30T11:56:18.296Z,15.92
2018-12-30T11:57:20.342Z,15.92
2018-12-30T11:58:22.353Z,15.91
2018-12-30T11:59:26.153Z,15.90
2018-12-30T12:00:28.115Z,15.89
2018-12-30T12:01:30.048Z,15.91
2018-12-30T12:02:32.325Z,15.91
2018-12-30T12:03:34.244Z,15.91
2018-12-30T12:04:36.195Z,15.91
2018-12-30T12:05:38.196Z,15.91
2018-12-30T12:06:40.154Z,15.89
2018-12-30T12:07:42.198Z,15.89
2018-12-30T12:08:44.140Z,15.89
2018-12-30T12:09:46.160Z,15.90
2018-12-30T12:10:48.099Z,15.89
2018-12-30T12:11:50.051Z,15.89
2018-12-30T12:12:52.085Z,15.90
2018-12-30T12:13:54.223Z,15.89
2018-12-30T12:14:56.166Z,15.89
2018-12-30T12:15:58.103Z,15.89
2018-12-30T12:17:00.042Z,15.88
2018-12-30T12:18:02.033Z,15.87
2018-12-30T12:19:04.057Z,15.87
2018-12-30T12:20:09.866Z,15.86
2018-12-30T12:21:11.890Z,15.85
2018-12-30T12:22:13.838Z,15.85
2018-12-30T12:23:15.884Z,15.86
2018-12-30T12:24:24.335Z,15.86
2018-12-30T12:25:21.500Z,15.85
2018-12-30T12:26:23.526Z,15.85
2018-12-30T12:27:25.542Z,15.86
2018-12-30T12:28:27.507Z,15.86
2018-12-30T12:29:29.461Z,15.87
2018-12-30T12:30:31.470Z,15.86
2018-12-30T12:31:33.414Z,15.87
2018-12-30T12:32:35.349Z,15.86
2018-12-30T12:33:39.209Z,15.86
2018-12-30T12:34:40.976Z,15.86
2018-12-30T12:35:42.910Z,15.87
2018-12-30T12:36:44.858Z,15.87
2018-12-30T12:37:46.866Z,15.87
2018-12-30T12:38:48.850Z,15.86
2018-12-30T12:39:50.837Z,15.86
2018-12-30T12:40:52.877Z,15.86
2018-12-30T12:41:54.841Z,15.85
2018-12-30T12:42:56.779Z,15.85
2018-12-30T12:43:58.733Z,15.85
2018-12-30T12:45:00.684Z,15.86
2018-12-30T12:46:02.617Z,15.84
2018-12-30T12:47:04.630Z,15.85
2018-12-30T12:48:06.584Z,15.86
2018-12-30T12:49:08.555Z,15.86
2018-12-30T12:50:10.513Z,15.84
2018-12-30T12:51:12.526Z,15.83
2018-12-30T12:52:14.472Z,15.84
2018-12-30T12:53:16.411Z,15.83
2018-12-30T12:54:18.353Z,15.82
2018-12-30T12:55:20.311Z,15.81
2018-12-30T12:56:22.255Z,15.80
2018-12-30T12:57:24.197Z,15.80
2018-12-30T12:58:26.213Z,15.80
2018-12-30T12:59:28.267Z,15.80
2018-12-30T13:00:30.234Z,15.82
2018-12-30T13:01:32.160Z,15.82
2018-12-30T13:02:35.479Z,15.83
2018-12-30T13:03:39.182Z,15.83
2018-12-30T13:04:41.163Z,15.83
2018-12-30T13:05:43.108Z,15.82
2018-12-30T13:06:45.118Z,15.83
2018-12-30T13:07:47.065Z,15.83
2018-12-30T13:08:49.011Z,15.84
2018-12-30T13:09:51.062Z,15.83
2018-12-30T13:10:52.996Z,15.83
2018-12-30T13:11:54.936Z,15.81
2018-12-30T13:12:56.876Z,15.80
2018-12-30T13:13:58.819Z,15.81
2018-12-30T13:15:00.809Z,15.84
2018-12-30T13:16:03.439Z,15.85
2018-12-30T13:17:05.890Z,15.90
2018-12-30T13:18:07.840Z,15.94
2018-12-30T13:19:09.839Z,15.97
2018-12-30T13:20:11.815Z,15.99